HMMO2: Washita River Near Hammon, OK

Data processed at Tue May 21 2019 23:50


All information presented herein is the property of the government of the United States of America and may be revised or deleted at any time without prior notice.
Dissemination of this information without the expressed written consent of the Public Affairs Office, Tulsa District U.S. Army Corps of Engineers is strictly prohibited.
These data are gathered electronically and, as presented, have not undergone any form of quality control. These data are not guaranteed to be valid or correct.
Go to home page.
Go to station list.
Go to home page.

Upstream stations:

Downstream station:
Previous Day
Next Day
Current Day
    
SHEF ID:       HMMO2     Washita River near Hammon, OK
STATION TYPE:  
Regulating: Stage =    22.00, Flow =     2507

               PRECIP     STAGE  STAGE(2)  RIV-FLOW  BAT-LOAD
                   in        ft        ft       cfs      volt
              Ccp-Rev   Ccp-Rev   Ccp-Rev   Ccp-Rev   Ccp-Rev
(US/Central)
05/21 00:00      0.00     15.58     15.03       975     12.17
05/21 01:00      0.19     16.16     15.57      1069     12.17
05/21 02:00      0.20     16.45     15.88      1116     12.17
05/21 03:00      0.23     16.71     16.13      1159     12.17
05/21 04:00      0.08     16.93     16.36      1196     12.17
05/21 05:00      0.29     17.23     16.67      1247     12.17
05/21 06:00      0.10     17.67     17.10      1323     12.17
05/21 07:00      0.00     17.75     17.54      1337     12.17
05/21 08:00      0.00     18.53     17.97      1477     12.25
05/21 09:00      0.00     18.92     18.37      1548     12.25
05/21 10:00      0.00     19.03     18.70      1568     12.89
05/21 11:00      0.00     19.49     18.97      1665     13.21
05/21 12:00      0.00     19.37     19.16      1638     13.29
05/21 13:00      0.00     19.85     19.29      1747     13.05
05/21 14:00      0.00     19.89     19.38      1756     13.05
05/21 15:00      0.00     20.00     19.46      1782     12.97
05/21 16:00      0.00     20.12     19.55      1810     13.13
05/21 17:00      0.00     20.21     19.62      1831     13.21
05/21 18:00      0.00     20.26     19.70      1843     13.05
05/21 19:00      0.00     20.33     19.76      1859     12.97
05/21 20:00      0.00     20.35     19.82      1864     12.65
05/21 21:00      0.00     20.39     19.81      1874     12.49
05/21 22:00      0.00     20.32     19.77      1857     12.49
05/21 23:00      0.00     20.30     19.68      1852     12.41